ěÝzenÝ letovÚho provozu ╚eskÚ republiky
Letiste: LKMT Aktualizace: 22.04.2024 04:01:01  UTC
 METAR LKMT 22.04. 04:00 ...
METAR LKMT 220400Z 36009KT 6000 -SN BKN008 OVC014 01/00 Q1019 TEMPO 4000 -SN BR=
 TAF LKMT 21.04. 23:00 ...
TAF LKMT 212300Z 2200/2300 01010KT 9999 SCT010 OVC016      TEMPO 2200/2208 2500 -SNRA BR BKN005      PROB30 TEMPO 2202/2207 1400 -SN BR BKN002      BECMG 2208/2210 03006KT BKN025      TEMPO 2210/2216 7000 SHRA SCT020TCU=